Weather at RAAF Williams, Point Cook Base

Public forecast

Using degrees Celsius for public forecast. Weather courtesy of forecast.io.

Closest aviation weather report (METAR) to RAAF Williams, Point Cook Base

Closest report is Melbourne Essendon Airport, 14.1 nm (26.2 km) NNE. Retrieved 2021/12/05 01:00 UTC (13 minutes ago):

YMEN 050100Z AUTO 19010KT 9999 // OVC043 18/06 Q1020

Closest aviation forecast (TAF) to RAAF Williams, Point Cook Base

Closest forecast is Avalon Airport, 14.9 nm (27.6 km) WSW. Retrieved 2021-12-05 00:00 UTC (1 hour ago):

TAF YMAV 042317Z 0500/0600 12010KT 9999 SCT035 FM050200 10008KT CAVOK FM050600 16012KT CAVOK FM051000 24008KT 9999 FEW035 FM051600 33006KT CAVOK FM052100 01017KT CAVOK